Time;durP1;ratioP1;P1;durP2;ratioP2;P2;SDS_P1;SDS_P2;PMS_P1;PMS_P2;Temp;Humidity;BMP_temperature;BMP_pressure;BME280_temperature;BME280_humidity;BME280_pressure;Samples;Min_cycle;Max_cycle;Signal;HPM_P1;HPM_P2
2023/08/26 00:00:30;;;;;;;;;0.00;0.00;;;;;19.00;68.27;100856.19;5021607;28;9533;-70
2023/08/26 00:02:56;;;;;;;;;1.00;1.00;;;;;19.00;68.44;100850.75;5004179;28;8835;-69
2023/08/26 00:05:23;;;;;;;;;1.25;1.25;;;;;18.99;68.64;100849.06;4990549;28;8858;-69
2023/08/26 00:07:49;;;;;;;;;0.75;0.75;;;;;19.01;68.51;100848.84;5023539;28;8845;-69
2023/08/26 00:10:16;;;;;;;;;0.00;0.00;;;;;19.00;68.43;100848.00;5006615;28;8896;-70
2023/08/26 00:12:43;;;;;;;;;1.00;1.00;;;;;18.98;68.36;100847.44;4989560;28;8907;-69
2023/08/26 00:15:09;;;;;;;;;1.00;1.00;;;;;18.98;68.45;100850.16;4992898;28;8844;-69
2023/08/26 00:17:36;;;;;;;;;2.00;1.00;;;;;18.95;68.60;100845.19;4991907;28;8831;-69
2023/08/26 00:20:05;;;;;;;;;2.75;2.75;;;;;18.93;68.51;100846.53;4994481;28;8839;-67
2023/08/26 00:22:33;;;;;;;;;2.25;2.25;;;;;18.92;68.38;100842.13;4993582;28;8833;-67
2023/08/26 00:24:59;;;;;;;;;2.00;1.00;;;;;18.92;68.53;100844.84;5023027;28;8838;-67
2023/08/26 00:27:26;;;;;;;;;3.00;2.00;;;;;18.92;68.64;100848.44;4991176;28;8857;-69
2023/08/26 00:29:52;;;;;;;;;1.50;1.00;;;;;18.91;68.23;100849.50;4991960;28;8857;-68
2023/08/26 00:32:19;;;;;;;;;4.00;4.00;;;;;18.89;68.34;100854.38;4985833;28;8924;-72
2023/08/26 00:34:45;;;;;;;;;3.00;3.00;;;;;18.84;68.25;100858.91;5013977;28;8864;-68
2023/08/26 00:37:12;;;;;;;;;2.50;2.00;;;;;18.82;68.31;100856.44;4985141;28;8835;-69
2023/08/26 00:39:39;;;;;;;;;3.75;2.00;;;;;18.81;68.17;100854.81;4988373;28;8844;-70
2023/08/26 00:42:05;;;;;;;;;3.25;3.25;;;;;18.81;68.19;100846.63;5020024;28;8881;-69
2023/08/26 00:44:33;;;;;;;;;3.75;3.00;;;;;18.82;68.30;100845.53;4989193;28;8861;-68
2023/08/26 00:47:00;;;;;;;;;2.75;2.00;;;;;18.83;68.44;100843.63;5014437;28;8911;-67
2023/08/26 00:49:29;;;;;;;;;1.00;1.00;;;;;18.80;68.10;100844.97;5018107;28;8899;-69
2023/08/26 00:51:57;;;;;;;;;5.75;3.25;;;;;18.80;68.05;100852.31;4998439;28;8842;-68
2023/08/26 00:54:24;;;;;;;;;2.00;2.00;;;;;18.80;68.10;100844.97;5019940;28;8845;-69
2023/08/26 00:56:51;;;;;;;;;2.00;2.00;;;;;18.82;68.25;100839.25;4987647;28;8849;-70
2023/08/26 00:59:17;;;;;;;;;1.50;1.50;;;;;18.84;68.31;100827.03;4997579;28;8862;-68
2023/08/26 01:01:45;;;;;;;;;1.00;1.00;;;;;18.84;68.07;100829.75;4989369;28;8897;-68
2023/08/26 01:04:12;;;;;;;;;1.50;1.00;;;;;18.83;68.05;100835.44;4987209;28;9548;-68
2023/08/26 01:06:39;;;;;;;;;1.25;1.25;;;;;18.82;68.08;100836.53;5004748;28;8845;-70
2023/08/26 01:09:05;;;;;;;;;3.50;2.25;;;;;18.80;67.94;100839.53;4990440;28;8904;-70
2023/08/26 01:11:52;;;;;;;;;2.50;1.75;;;;;18.81;68.00;100843.06;5015752;28;8832;-70
2023/08/26 01:15:02;;;;;;;;;1.00;1.00;;;;;18.78;68.10;100842.47;4988827;28;8845;-69
2023/08/26 01:17:29;;;;;;;;;3.00;1.00;;;;;18.77;67.93;100843.56;4980031;28;8825;-70
2023/08/26 01:19:58;;;;;;;;;2.00;1.00;;;;;18.77;68.03;100840.84;5009176;28;8885;-70
2023/08/26 01:22:28;;;;;;;;;1.00;1.00;;;;;18.78;68.30;100842.47;4988391;28;8833;-70
2023/08/26 01:24:55;;;;;;;;;2.50;1.00;;;;;18.76;69.03;100841.09;4990553;28;8837;-71
2023/08/26 01:27:22;;;;;;;;;3.00;1.75;;;;;18.73;69.43;100842.41;4970728;28;8844;-70
2023/08/26 01:29:48;;;;;;;;;1.00;1.00;;;;;18.70;69.67;100842.91;5018654;28;8880;-70
2023/08/26 01:32:40;;;;;;;;;1.00;1.00;;;;;18.63;69.57;100834.00;4993821;28;8827;-70
2023/08/26 01:35:12;;;;;;;;;3.25;2.00;;;;;18.62;69.71;100837.81;4985618;28;8853;-70
2023/08/26 01:37:41;;;;;;;;;3.00;3.00;;;;;18.60;70.15;100834.53;4983715;28;8848;-69
2023/08/26 01:40:10;;;;;;;;;2.00;2.00;;;;;18.60;69.91;100831.81;5004490;28;8846;-69
2023/08/26 01:42:37;;;;;;;;;2.25;1.25;;;;;18.56;69.96;100835.28;4986654;28;8840;-69
2023/08/26 01:45:05;;;;;;;;;3.00;3.00;;;;;18.56;70.39;100835.28;4977670;28;8840;-69
2023/08/26 01:47:32;;;;;;;;;2.75;2.75;;;;;18.53;70.48;100851.03;4989006;28;8837;-68
2023/08/26 01:49:59;;;;;;;;;4.50;4.50;;;;;18.53;70.72;100856.50;4985859;28;8919;-69
2023/08/26 01:52:26;;;;;;;;;3.75;2.00;;;;;18.54;70.97;100851.88;5005209;28;8858;-70
2023/08/26 01:54:52;;;;;;;;;5.50;3.00;;;;;18.54;71.00;100849.13;4988044;28;8857;-69
2023/08/26 01:57:19;;;;;;;;;6.00;3.75;;;;;18.53;71.07;100844.78;4988987;28;8849;-69
2023/08/26 01:59:45;;;;;;;;;5.25;4.00;;;;;18.52;71.34;100837.66;4988878;28;8874;-70
2023/08/26 02:02:13;;;;;;;;;5.50;5.50;;;;;18.51;71.37;100836.84;5002328;28;8905;-69
2023/08/26 02:04:39;;;;;;;;;3.00;3.00;;;;;18.50;71.24;100837.06;4992240;28;8869;-69
2023/08/26 02:07:06;;;;;;;;;6.75;6.50;;;;;18.45;71.60;100845.16;5018314;28;9589;-70
2023/08/26 02:09:33;;;;;;;;;4.50;4.50;;;;;18.42;71.52;100838.31;4972054;28;8942;-68
2023/08/26 02:12:00;;;;;;;;;3.50;3.50;;;;;18.41;71.50;100835.84;4982481;28;8979;-69
2023/08/26 02:14:27;;;;;;;;;3.50;3.50;;;;;18.41;71.73;100835.84;4992477;28;8865;-69
2023/08/26 02:16:53;;;;;;;;;4.75;4.75;;;;;18.43;71.87;100831.81;5017547;28;8887;-69
2023/08/26 02:19:20;;;;;;;;;6.25;5.50;;;;;18.41;71.94;100828.47;4988354;28;8847;-69
2023/08/26 02:21:46;;;;;;;;;5.25;3.00;;;;;18.41;71.93;100827.66;4988195;28;8837;-69
2023/08/26 02:24:13;;;;;;;;;6.75;6.00;;;;;18.42;72.16;100826.56;5013568;28;8860;-68
2023/08/26 02:26:39;;;;;;;;;6.25;6.25;;;;;18.41;72.26;100814.84;4987600;28;8864;-68
2023/08/26 02:29:06;;;;;;;;;5.75;5.00;;;;;18.39;72.11;100813.44;4989326;28;8876;-68
2023/08/26 02:31:33;;;;;;;;;7.50;5.00;;;;;18.35;72.35;100823.19;4995398;28;8883;-67
2023/08/26 02:34:00;;;;;;;;;5.25;4.50;;;;;18.33;72.45;100819.88;5023150;28;8835;-67
2023/08/26 02:36:27;;;;;;;;;7.50;5.00;;;;;18.28;72.32;100824.19;4974891;28;8887;-67
2023/08/26 02:38:53;;;;;;;;;9.25;8.00;;;;;18.17;72.37;100825.06;4974782;28;9553;-68
2023/08/26 02:41:20;;;;;;;;;8.50;6.75;;;;;18.16;72.50;100820.69;4989371;28;8896;-69
2023/08/26 02:43:48;;;;;;;;;9.25;7.25;;;;;18.14;72.70;100828.25;4980987;28;8849;-69
2023/08/26 02:46:15;;;;;;;;;7.25;5.00;;;;;18.12;72.85;100821.44;4994126;28;8880;-69
2023/08/26 02:48:42;;;;;;;;;4.50;4.50;;;;;18.13;72.65;100829.34;4992481;28;8858;-69
2023/08/26 02:51:09;;;;;;;;;6.00;5.25;;;;;18.16;72.51;100831.59;4991574;28;9040;-69
2023/08/26 02:53:36;;;;;;;;;6.00;6.00;;;;;18.19;72.65;100835.69;4991547;28;8833;-70
2023/08/26 02:56:02;;;;;;;;;6.00;6.00;;;;;18.21;72.57;100830.84;4992647;28;8837;-69
2023/08/26 02:58:30;;;;;;;;;6.75;5.25;;;;;18.22;72.77;100829.78;5003322;28;8868;-69
2023/08/26 03:01:00;;;;;;;;;11.00;7.75;;;;;18.21;72.87;100822.69;4991315;28;8857;-68
2023/08/26 03:03:28;;;;;;;;;6.00;6.00;;;;;18.14;73.50;100822.81;4975406;28;8854;-70
2023/08/26 03:05:59;;;;;;;;;10.75;10.25;;;;;18.10;74.17;100820.84;4986841;28;8915;-69
2023/08/26 03:08:26;;;;;;;;;6.75;6.25;;;;;18.08;74.55;100829.25;5023248;28;8853;-70
2023/08/26 03:11:00;;;;;;;;;6.00;6.00;;;;;18.07;74.72;100826.75;4986070;28;8852;-70
2023/08/26 03:13:27;;;;;;;;;8.25;6.00;;;;;18.05;75.24;100824.28;4989066;28;9603;-70
2023/08/26 03:15:53;;;;;;;;;7.25;6.75;;;;;18.00;75.49;100827.75;4991630;28;8871;-70
2023/08/26 03:18:20;;;;;;;;;7.75;7.75;;;;;17.96;75.67;100826.59;4989483;28;8846;-69
2023/08/26 03:20:47;;;;;;;;;7.00;7.00;;;;;17.91;75.86;100831.13;4989541;28;9582;-69
2023/08/26 03:23:14;;;;;;;;;8.00;5.00;;;;;17.86;76.06;100833.72;4991157;28;8923;-70
2023/08/26 03:25:43;;;;;;;;;3.50;3.50;;;;;17.84;76.26;100833.97;5006535;28;8947;-69
2023/08/26 03:28:09;;;;;;;;;5.67;5.67;;;;;17.81;76.31;100829.00;4991148;28;8923;-69
2023/08/26 03:30:37;;;;;;;;;6.00;6.00;;;;;17.77;76.42;100820.50;4982688;28;8941;-68
2023/08/26 03:33:04;;;;;;;;;7.00;7.00;;;;;17.68;75.88;100821.09;5016702;28;9219;-71
2023/08/26 03:35:31;;;;;;;;;7.00;6.33;;;;;17.65;76.67;100819.69;4989609;28;9017;-69
2023/08/26 03:37:58;;;;;;;;;7.67;5.67;;;;;17.63;76.48;100810.94;4992068;28;9073;-70
2023/08/26 03:40:24;;;;;;;;;6.67;6.67;;;;;17.62;76.44;100817.44;5006890;28;8951;-70
2023/08/26 03:42:51;;;;;;;;;8.00;6.33;;;;;17.61;76.64;100818.50;4990404;28;9183;-70
2023/08/26 03:45:18;;;;;;;;;5.67;4.67;;;;;17.64;76.59;100811.75;4998394;28;9053;-70
2023/08/26 03:47:46;;;;;;;;;7.33;7.00;;;;;17.58;76.63;100808.09;4985164;28;9001;-70
2023/08/26 03:50:13;;;;;;;;;4.00;4.00;;;;;17.57;76.84;100809.16;5005269;28;9088;-70
2023/08/26 03:52:41;;;;;;;;;5.50;5.50;;;;;17.59;77.06;100820.66;5017995;28;8948;-70
2023/08/26 03:55:08;;;;;;;;;6.67;6.67;;;;;17.56;77.10;100815.69;4990989;28;8935;-69
2023/08/26 03:57:34;;;;;;;;;8.67;8.33;;;;;17.51;76.97;100819.13;4990532;28;8942;-70
2023/08/26 04:00:01;;;;;;;;;7.00;6.67;;;;;17.48;76.93;100811.44;4995901;28;9011;-71
2023/08/26 04:02:28;;;;;;;;;6.67;6.67;;;;;17.43;77.15;100816.78;4990202;28;9028;-69
2023/08/26 04:04:54;;;;;;;;;8.33;6.00;;;;;17.39;76.87;100814.78;4990955;28;9034;-70
2023/08/26 04:07:21;;;;;;;;;6.00;6.00;;;;;17.32;76.72;100820.34;4990102;28;8941;-69
2023/08/26 04:09:48;;;;;;;;;6.00;4.75;;;;;17.34;76.87;100823.69;4986837;28;9213;-69
2023/08/26 04:12:14;;;;;;;;;7.00;7.00;;;;;17.28;76.57;100816.47;5002258;28;8861;-71
2023/08/26 04:14:41;;;;;;;;;6.67;6.67;;;;;17.28;77.01;100824.63;4993096;28;8940;-70
2023/08/26 04:17:08;;;;;;;;;6.67;6.00;;;;;17.28;77.16;100825.44;4994847;28;8951;-69
2023/08/26 04:19:34;;;;;;;;;7.00;7.00;;;;;17.30;77.12;100825.22;4992612;28;8934;-70
2023/08/26 04:22:01;;;;;;;;;15.67;10.67;;;;;17.27;77.10;100834.69;4989233;28;8939;-70
2023/08/26 04:24:28;;;;;;;;;7.00;7.00;;;;;17.26;77.21;100835.75;4989127;28;8950;-70
2023/08/26 04:26:54;;;;;;;;;7.33;6.33;;;;;17.27;77.11;100831.97;5005188;28;8898;-69
2023/08/26 04:29:21;;;;;;;;;9.00;7.33;;;;;17.26;77.26;100838.47;4986387;28;8932;-71
2023/08/26 04:31:48;;;;;;;;;8.00;8.00;;;;;17.22;77.52;100837.28;4990432;28;9039;-71
2023/08/26 04:34:14;;;;;;;;;10.00;8.67;;;;;17.20;77.81;100833.16;4989784;28;10401;-70
2023/08/26 04:36:40;;;;;;;;;9.67;7.67;;;;;17.22;78.19;100828.31;4990908;28;9003;-69
2023/08/26 04:39:11;;;;;;;;;7.67;7.67;;;;;17.18;78.09;100825.25;4987896;28;9046;-70
2023/08/26 04:41:39;;;;;;;;;10.00;10.00;;;;;17.18;78.47;100821.69;5018664;28;9023;-70
2023/08/26 04:44:11;;;;;;;;;10.00;10.00;;;;;17.14;78.44;100828.69;4988537;28;9167;-69
2023/08/26 04:46:38;;;;;;;;;13.67;13.33;;;;;17.09;78.58;100828.53;5014714;28;9109;-70
2023/08/26 04:49:04;;;;;;;;;9.00;8.33;;;;;17.09;78.67;100832.09;4987739;28;9252;-70
2023/08/26 04:51:31;;;;;;;;;11.67;10.00;;;;;17.10;78.64;100835.66;5017916;28;9676;-69
2023/08/26 04:53:57;;;;;;;;;11.00;11.00;;;;;17.06;78.75;100835.31;5004613;28;9015;-71
2023/08/26 04:56:27;;;;;;;;;11.00;8.67;;;;;16.99;78.73;100845.47;5003738;28;9726;-70
2023/08/26 04:58:53;;;;;;;;;13.00;12.00;;;;;16.97;78.88;100851.13;4991790;28;9087;-70
2023/08/26 05:01:20;;;;;;;;;13.33;12.67;;;;;16.91;78.84;100859.41;4991619;28;9077;-70
2023/08/26 05:03:47;;;;;;;;;16.00;15.33;;;;;16.89;79.16;100861.53;4986702;28;9274;-70
2023/08/26 05:06:14;;;;;;;;;15.33;15.00;;;;;16.88;78.99;100866.13;4989218;28;9339;-70
2023/08/26 05:08:41;;;;;;;;;14.00;12.00;;;;;16.85;79.53;100866.59;4989275;28;9343;-69
2023/08/26 05:11:08;;;;;;;;;19.67;19.00;;;;;16.87;79.61;100871.81;4989193;28;9124;-69
2023/08/26 05:13:35;;;;;;;;;23.00;20.00;;;;;16.88;79.68;100873.47;5021931;28;9473;-70
2023/08/26 05:16:02;;;;;;;;;19.33;19.33;;;;;16.86;79.81;100879.16;4987028;28;9412;-70
2023/08/26 05:18:29;;;;;;;;;23.67;19.33;;;;;16.86;79.87;100870.19;5021379;28;9425;-70
2023/08/26 05:20:55;;;;;;;;;20.33;20.33;;;;;16.91;80.04;100876.56;4970272;28;10076;-70
2023/08/26 05:23:22;;;;;;;;;22.50;21.50;;;;;16.90;80.31;100876.78;4986190;28;9325;-70
2023/08/26 05:25:49;;;;;;;;;16.00;15.33;;;;;16.92;80.18;100874.66;4989779;28;9638;-70
2023/08/26 05:28:16;;;;;;;;;18.33;18.00;;;;;16.90;80.15;100872.19;4990008;28;9270;-70
2023/08/26 05:30:43;;;;;;;;;15.00;14.67;;;;;16.89;80.39;100877.84;4989110;28;9341;-70
2023/08/26 05:33:10;;;;;;;;;14.00;14.00;;;;;16.86;79.87;100897.38;5019497;28;10382;-70
2023/08/26 05:35:36;;;;;;;;;11.33;10.33;;;;;16.84;80.29;100891.31;4971791;28;9405;-70
2023/08/26 05:38:03;;;;;;;;;14.67;12.33;;;;;16.84;80.37;100894.03;4987515;28;9328;-69
2023/08/26 05:40:30;;;;;;;;;9.00;9.00;;;;;16.78;80.49;100890.38;4986849;28;9255;-70
2023/08/26 05:42:56;;;;;;;;;10.00;10.00;;;;;16.73;80.27;100891.09;4988448;28;9334;-69
2023/08/26 05:45:25;;;;;;;;;8.67;8.33;;;;;16.75;80.06;100886.22;5011190;28;9099;-70
2023/08/26 05:47:53;;;;;;;;;8.33;7.67;;;;;16.76;80.11;100892.47;5002403;28;9163;-70
2023/08/26 05:50:19;;;;;;;;;8.67;8.33;;;;;16.73;80.17;100893.81;4991559;28;9254;-70
2023/08/26 05:52:46;;;;;;;;;8.67;5.67;;;;;16.78;79.99;100906.69;5018711;28;9314;-70
2023/08/26 05:55:12;;;;;;;;;7.67;7.67;;;;;16.82;80.21;100902.44;4988838;28;9722;-70
2023/08/26 05:57:41;;;;;;;;;4.67;4.67;;;;;16.86;79.66;100895.47;5017482;28;10046;-71
2023/08/26 06:00:08;;;;;;;;;6.00;4.00;;;;;16.87;79.52;100888.13;4994089;28;10092;-70
2023/08/26 06:02:46;;;;;;;;;8.00;5.00;;;;;16.87;79.92;100896.28;5016637;28;9015;-69
2023/08/26 06:05:15;;;;;;;;;6.67;6.67;;;;;16.89;79.44;100891.44;4973701;28;8937;-70
2023/08/26 06:07:42;;;;;;;;;4.00;4.00;;;;;16.86;79.42;100900.09;4989361;28;8957;-70
2023/08/26 06:10:08;;;;;;;;;7.00;5.50;;;;;16.84;79.75;100894.84;4993072;28;8955;-70
2023/08/26 06:12:37;;;;;;;;;8.00;7.00;;;;;16.84;79.50;100892.16;5008930;28;8858;-69
2023/08/26 06:15:06;;;;;;;;;6.00;3.67;;;;;16.87;79.38;100888.13;4991830;28;9009;-69
2023/08/26 06:17:34;;;;;;;;;3.75;3.25;;;;;16.90;79.05;100882.25;4992218;28;8949;-69
2023/08/26 06:20:03;;;;;;;;;3.25;3.25;;;;;16.88;79.30;100887.06;4991701;28;8864;-69
2023/08/26 06:22:30;;;;;;;;;5.00;4.50;;;;;16.91;79.34;100881.16;4991715;28;8849;-68
2023/08/26 06:24:57;;;;;;;;;4.75;4.75;;;;;16.85;79.13;100890.25;5024279;28;9603;-69
2023/08/26 06:27:25;;;;;;;;;2.00;2.00;;;;;16.87;79.12;100879.97;4994255;28;8865;-69
2023/08/26 06:29:53;;;;;;;;;7.25;7.25;;;;;16.87;78.97;100879.97;5005351;28;8831;-68
2023/08/26 06:32:20;;;;;;;;;3.00;3.00;;;;;16.84;78.72;100884.00;5023668;28;8945;-68
2023/08/26 06:34:47;;;;;;;;;2.67;2.67;;;;;16.79;78.69;100876.53;5008072;28;8957;-69
2023/08/26 06:37:15;;;;;;;;;2.50;2.50;;;;;16.87;79.02;100883.53;4992133;28;8945;-70
2023/08/26 06:39:42;;;;;;;;;3.00;3.00;;;;;16.90;78.95;100876.78;4989652;28;9541;-69
2023/08/26 06:42:08;;;;;;;;;4.25;2.50;;;;;16.91;78.92;100876.56;4992106;28;9023;-70
2023/08/26 06:44:41;;;;;;;;;3.00;2.75;;;;;16.97;78.84;100883.75;4992557;28;9844;-69
2023/08/26 06:47:09;;;;;;;;;5.75;2.75;;;;;17.01;78.61;100873.22;4989792;28;8868;-69
2023/08/26 06:49:36;;;;;;;;;3.00;2.00;;;;;17.00;78.64;100877.84;5005119;28;8840;-70
2023/08/26 06:52:02;;;;;;;;;2.25;2.25;;;;;17.02;78.68;100870.31;4989247;28;8957;-67
2023/08/26 06:54:29;;;;;;;;;3.00;3.00;;;;;17.09;78.89;100869.34;4988347;28;8959;-69
2023/08/26 06:56:58;;;;;;;;;6.00;3.00;;;;;17.11;78.69;100859.88;4984736;28;8873;-70
2023/08/26 06:59:25;;;;;;;;;2.50;2.50;;;;;17.13;78.32;100860.47;4995628;28;8854;-69
2023/08/26 07:01:51;;;;;;;;;4.25;3.25;;;;;17.12;78.28;100860.72;4997234;28;8870;-69
2023/08/26 07:04:18;;;;;;;;;2.75;2.00;;;;;17.10;78.28;100866.41;4997967;28;8923;-71
2023/08/26 07:06:45;;;;;;;;;3.25;3.25;;;;;17.09;78.13;100878.31;4991596;28;8857;-70
2023/08/26 07:09:12;;;;;;;;;6.00;2.25;;;;;17.14;78.50;100881.19;4986273;28;8927;-67
2023/08/26 07:11:38;;;;;;;;;4.00;3.25;;;;;17.09;77.72;100891.09;4996374;28;8859;-68
2023/08/26 07:14:05;;;;;;;;;3.75;3.50;;;;;17.05;78.17;100893.47;5021439;28;9592;-70
2023/08/26 07:16:31;;;;;;;;;4.75;4.75;;;;;17.09;77.94;100901.97;4989541;28;9709;-69
2023/08/26 07:18:58;;;;;;;;;3.50;1.75;;;;;17.13;77.92;100903.97;4998565;28;8860;-69
2023/08/26 07:21:25;;;;;;;;;4.50;3.25;;;;;17.23;77.51;100906.97;4991399;28;9583;-69
2023/08/26 07:23:51;;;;;;;;;7.67;6.67;;;;;17.11;76.97;100908.03;4989847;28;8861;-69
2023/08/26 07:26:18;;;;;;;;;4.00;4.00;;;;;17.07;76.95;100928.59;4992737;28;8920;-69
2023/08/26 07:28:46;;;;;;;;;5.50;4.75;;;;;17.04;76.75;100928.00;4991780;28;8842;-69
2023/08/26 07:31:13;;;;;;;;;5.50;3.50;;;;;17.10;77.11;100926.25;5021925;28;8883;-69
2023/08/26 07:33:39;;;;;;;;;6.00;6.00;;;;;17.16;77.10;100930.72;4991505;28;8992;-69
2023/08/26 07:36:08;;;;;;;;;7.75;6.25;;;;;17.17;77.05;100928.81;4991651;28;9003;-70
2023/08/26 07:38:35;;;;;;;;;5.25;2.75;;;;;17.17;77.20;100934.25;4993173;28;8833;-69
2023/08/26 07:41:02;;;;;;;;;3.50;3.00;;;;;17.20;77.25;100925.63;4987084;28;8875;-69
2023/08/26 07:43:30;;;;;;;;;5.00;4.50;;;;;17.22;77.10;100923.53;4984887;28;8832;-69
2023/08/26 07:45:56;;;;;;;;;6.75;5.00;;;;;17.15;77.44;100920.91;4990424;28;8848;-69
2023/08/26 07:48:26;;;;;;;;;5.75;5.75;;;;;17.11;77.36;100917.00;4990412;28;8838;-70
2023/08/26 07:50:55;;;;;;;;;3.00;3.00;;;;;17.16;77.39;100919.84;4992989;28;9534;-69
2023/08/26 07:53:21;;;;;;;;;6.00;5.50;;;;;17.19;77.13;100927.53;4988327;28;8861;-70
2023/08/26 07:55:48;;;;;;;;;10.33;10.33;;;;;17.19;77.05;100926.72;4989875;28;9544;-70
2023/08/26 07:58:14;;;;;;;;;9.50;7.50;;;;;17.24;77.24;100926.81;4971473;28;8938;-69
2023/08/26 08:00:41;;;;;;;;;13.67;11.33;;;;;17.27;76.76;100932.63;4992914;28;9874;-69
2023/08/26 08:03:07;;;;;;;;;14.67;14.33;;;;;17.28;76.58;100934.28;5022525;28;9008;-69
2023/08/26 08:05:34;;;;;;;;;14.00;14.00;;;;;17.31;76.43;100932.97;4990451;28;9090;-69
2023/08/26 08:08:00;;;;;;;;;13.00;13.00;;;;;17.37;76.06;100928.47;4989780;28;9172;-70
2023/08/26 08:10:27;;;;;;;;;12.00;12.00;;;;;17.42;75.56;100924.00;4989865;28;9071;-69
2023/08/26 08:12:53;;;;;;;;;14.67;14.67;;;;;17.52;75.69;100931.56;4990455;28;8985;-69
2023/08/26 08:15:20;;;;;;;;;11.75;11.75;;;;;17.55;75.44;100937.34;4990554;28;9091;-68
2023/08/26 08:17:47;;;;;;;;;14.00;14.00;;;;;17.57;75.19;100928.94;4991547;28;8923;-67
2023/08/26 08:20:13;;;;;;;;;17.67;16.67;;;;;17.59;75.26;100931.44;5017838;28;9796;-68
2023/08/26 08:22:43;;;;;;;;;14.67;13.33;;;;;17.61;74.68;100926.56;4986315;28;9143;-68
2023/08/26 08:25:10;;;;;;;;;17.33;17.33;;;;;17.59;73.86;100926.81;5019773;28;9125;-68
2023/08/26 08:27:37;;;;;;;;;15.00;14.33;;;;;17.72;75.65;100918.38;4988847;28;9147;-63
2023/08/26 08:30:04;;;;;;;;;13.50;10.50;;;;;18.19;77.61;100928.34;4986831;28;8962;-65
2023/08/26 08:32:32;;;;;;;;;13.25;12.50;;;;;18.41;75.98;100931.22;5002119;28;8869;-64
2023/08/26 08:35:00;;;;;;;;;14.75;14.00;;;;;18.55;74.73;100929.84;4991075;28;8915;-68
2023/08/26 08:37:26;;;;;;;;;14.67;14.67;;;;;18.50;73.03;100929.75;4991406;28;8842;-67
2023/08/26 08:39:53;;;;;;;;;19.33;18.00;;;;;18.41;72.68;100928.50;5019686;28;8846;-67
2023/08/26 08:42:22;;;;;;;;;19.33;16.00;;;;;18.21;72.08;100924.31;4991228;28;9018;-67
2023/08/26 08:44:48;;;;;;;;;17.50;14.00;;;;;18.13;72.34;100930.16;4991139;28;8927;-68
2023/08/26 08:47:15;;;;;;;;;11.75;11.75;;;;;18.06;72.39;100926.72;5023154;28;9619;-67
2023/08/26 08:49:43;;;;;;;;;12.00;12.00;;;;;17.99;72.39;100936.97;4991009;28;8849;-67
2023/08/26 08:52:11;;;;;;;;;14.00;11.00;;;;;17.95;72.50;100925.72;4991406;28;8881;-67
2023/08/26 08:54:37;;;;;;;;;10.25;8.00;;;;;17.91;72.56;100932.72;4991334;28;8849;-67
2023/08/26 08:57:04;;;;;;;;;7.00;7.00;;;;;17.89;72.70;100932.09;4991090;28;8865;-67
2023/08/26 08:59:35;;;;;;;;;5.00;4.50;;;;;17.93;72.88;100935.19;4990840;28;8877;-67
2023/08/26 09:02:04;;;;;;;;;3.00;3.00;;;;;17.96;72.60;100926.53;5022173;28;8864;-68
2023/08/26 09:04:31;;;;;;;;;4.00;4.00;;;;;18.00;72.70;100928.53;5003787;28;8853;-67
2023/08/26 09:07:00;;;;;;;;;6.75;5.00;;;;;18.03;72.74;100927.25;4990958;28;8834;-68
2023/08/26 09:09:26;;;;;;;;;5.00;4.00;;;;;18.04;73.05;100926.97;4991118;28;9597;-67
2023/08/26 09:12:05;;;;;;;;;7.00;7.00;;;;;17.98;72.10;100927.09;4990668;28;8923;-70
2023/08/26 09:14:32;;;;;;;;;6.25;6.25;;;;;17.94;71.02;100936.84;4991000;28;8846;-67
2023/08/26 09:17:14;;;;;;;;;8.25;8.25;;;;;18.01;70.40;100942.97;5022450;28;8819;-68
2023/08/26 09:19:58;;;;;;;;;7.75;7.75;;;;;17.95;69.43;100943.97;5005358;28;8867;-68
2023/08/26 09:22:27;;;;;;;;;8.25;7.50;;;;;17.99;69.58;100943.22;4991055;28;8857;-67
2023/08/26 09:24:58;;;;;;;;;8.50;8.25;;;;;18.09;69.80;100939.88;4990684;28;8850;-68
2023/08/26 09:27:25;;;;;;;;;6.75;6.75;;;;;18.22;70.25;100945.03;4989280;28;8853;-68
2023/08/26 09:29:52;;;;;;;;;8.00;8.00;;;;;18.35;70.25;100945.81;4989986;28;8977;-67
2023/08/26 09:32:40;;;;;;;;;7.75;7.75;;;;;18.33;69.32;100937.91;4993824;28;8839;-68
2023/08/26 09:35:15;;;;;;;;;8.50;7.25;;;;;18.31;67.83;100944.66;4990429;28;8839;-67
2023/08/26 09:38:01;;;;;;;;;5.50;5.50;;;;;18.32;67.35;100940.88;4990188;28;8850;-67
2023/08/26 09:40:29;;;;;;;;;5.75;5.75;;;;;18.37;67.74;100939.06;4989638;28;8860;-68
2023/08/26 09:42:56;;;;;;;;;7.00;7.00;;;;;18.39;67.75;100938.81;4990341;28;8987;-67
2023/08/26 09:45:23;;;;;;;;;5.75;5.75;;;;;18.36;67.65;100939.31;4993154;28;8852;-67
2023/08/26 09:47:51;;;;;;;;;7.00;7.00;;;;;18.24;66.57;100942.09;5026227;28;8887;-67
2023/08/26 09:50:30;;;;;;;;;5.00;5.00;;;;;18.29;66.06;100944.91;4994320;28;9579;-68
2023/08/26 09:52:57;;;;;;;;;7.00;7.00;;;;;18.35;66.02;100941.22;4994743;28;8841;-68
2023/08/26 09:55:24;;;;;;;;;2.75;2.75;;;;;18.35;65.77;100943.09;4993099;28;8845;-68
2023/08/26 09:57:52;;;;;;;;;3.00;3.00;;;;;18.41;65.23;100953.84;4993220;28;8939;-67
2023/08/26 10:00:20;;;;;;;;;5.00;5.00;;;;;18.49;65.39;100952.66;4994016;28;8862;-68
2023/08/26 10:02:50;;;;;;;;;7.00;7.00;;;;;18.55;64.75;100954.38;5025032;28;8912;-68
2023/08/26 10:05:19;;;;;;;;;6.25;6.25;;;;;18.58;64.56;100955.81;4994501;28;8876;-70
2023/08/26 10:07:48;;;;;;;;;7.00;7.00;;;;;18.62;64.54;100948.78;4990113;28;8922;-68
2023/08/26 10:10:24;;;;;;;;;8.50;8.50;;;;;18.69;64.38;100950.28;4973481;28;8867;-68
2023/08/26 10:12:55;;;;;;;;;10.00;10.00;;;;;18.65;63.93;100956.47;4977017;28;8905;-68
2023/08/26 10:15:26;;;;;;;;;13.50;11.25;;;;;18.53;63.55;100959.25;5009483;28;8837;-68
2023/08/26 10:17:55;;;;;;;;;9.75;9.75;;;;;18.55;63.97;100954.38;4997459;28;8865;-69
2023/08/26 10:20:22;;;;;;;;;13.50;12.00;;;;;18.67;63.99;100951.59;4993713;28;8838;-68
2023/08/26 10:22:49;;;;;;;;;10.00;10.00;;;;;18.74;64.03;100957.75;5025881;28;8924;-69
2023/08/26 10:25:17;;;;;;;;;9.75;9.00;;;;;18.83;64.29;100944.53;4992909;28;9537;-67
2023/08/26 10:27:44;;;;;;;;;9.50;8.00;;;;;18.86;64.21;100944.06;4993872;28;9730;-69
2023/08/26 10:30:11;;;;;;;;;11.75;11.50;;;;;18.85;64.34;100945.97;5025244;28;8866;-68
2023/08/26 10:32:44;;;;;;;;;11.50;11.50;;;;;18.88;64.13;100947.34;4993293;28;8882;-68
2023/08/26 10:35:13;;;;;;;;;8.75;8.75;;;;;18.86;63.37;100953.06;4994274;28;8855;-71
2023/08/26 10:37:40;;;;;;;;;10.25;10.25;;;;;18.93;63.31;100934.66;4993825;28;8835;-68
2023/08/26 10:40:08;;;;;;;;;12.00;12.00;;;;;18.96;63.35;100950.53;4994154;28;8839;-69
2023/08/26 10:42:36;;;;;;;;;10.00;9.50;;;;;18.98;62.99;100947.53;4993062;28;8977;-70
2023/08/26 10:45:11;;;;;;;;;12.25;11.50;;;;;18.90;62.57;100950.69;4993844;28;8826;-71
2023/08/26 10:47:45;;;;;;;;;7.75;7.75;;;;;18.92;62.85;100951.25;5025161;28;9579;-69
2023/08/26 10:50:19;;;;;;;;;10.25;7.75;;;;;18.95;63.11;100950.75;4993022;28;8838;-70
2023/08/26 10:52:52;;;;;;;;;7.75;7.50;;;;;18.95;63.51;100953.47;4993641;28;8841;-68
2023/08/26 10:55:32;;;;;;;;;7.00;7.00;;;;;18.88;63.47;100956.38;4993279;28;8953;-70
2023/08/26 10:58:13;;;;;;;;;6.50;6.50;;;;;18.91;63.44;100955.06;4993984;28;8841;-70
2023/08/26 11:00:45;;;;;;;;;5.75;5.75;;;;;18.99;63.75;100944.56;5024088;28;8871;-70
2023/08/26 11:03:13;;;;;;;;;5.00;5.00;;;;;18.95;63.11;100950.75;4993453;28;8829;-69
2023/08/26 11:05:44;;;;;;;;;6.00;5.75;;;;;18.99;62.44;100943.72;4993103;28;8873;-69
2023/08/26 11:08:12;;;;;;;;;3.00;3.00;;;;;18.96;61.78;100936.88;4993114;28;8830;-69
2023/08/26 11:10:41;;;;;;;;;4.25;4.00;;;;;19.04;61.95;100938.38;4993093;28;9543;-69
2023/08/26 11:13:09;;;;;;;;;3.50;2.75;;;;;19.04;62.19;100935.66;4991947;28;8835;-70
2023/08/26 11:15:42;;;;;;;;;1.50;1.50;;;;;19.00;61.97;100942.69;4993287;28;8901;-69
2023/08/26 11:18:10;;;;;;;;;1.25;1.25;;;;;18.98;62.04;100951.09;4991414;28;8846;-69
2023/08/26 11:20:38;;;;;;;;;1.00;1.00;;;;;19.05;62.24;100950.94;5024271;28;8980;-69
2023/08/26 11:23:05;;;;;;;;;2.00;2.00;;;;;18.97;61.83;100952.16;4992789;28;8850;-70
2023/08/26 11:25:36;;;;;;;;;2.00;1.75;;;;;18.91;61.56;100960.50;4974385;28;8948;-69
2023/08/26 11:28:04;;;;;;;;;1.00;1.00;;;;;18.87;61.99;100949.25;5024576;28;8823;-69
2023/08/26 11:30:35;;;;;;;;;2.00;2.00;;;;;18.89;61.92;100949.03;4991550;28;8855;-69
2023/08/26 11:33:09;;;;;;;;;1.25;1.00;;;;;18.96;61.88;100945.06;5007677;28;8881;-71